Beach Ridge, NY

8:41 AM EST on January 16, 2017 (GMT -0500)
PENDLETON | | Change Station
Active Advisory: Freezing Rain Advisory

Elev 595 ft 43.10 °N, 78.80 °W | Updated 1 second ago

Partly Cloudy
Partly Cloudy
24.6 °F
Feels Like 25 °F
N
0.0
Wind Variable Wind from West
Gusts 0.0 mph

Today
High -- | Low -- °F
--% Chance of Precip.
Yesterday
High -- | Low -- °F
Precip. -- in
Pressure 30.40 in
Visibility 7.0 miles
Clouds Clear
Windchill 25 °F
Dew Point 22 °F
Humidity 90%
Rainfall 0.00 in
Snow Depth Not available.
7:43 AM 5:07 PM
Waning Gibbous, 81% visible
METAR KIAG 161253Z 19005KT 7SM CLR M04/M06 A3035 RMK AO2 SLP294 T10391061
Pressure 30.40 in
Visibility 7.0 miles
Clouds Clear
Windchill 25 °F
Dew Point 22 °F
Humidity 90%
Rainfall 0.00 in
Snow Depth Not available.
7:43 AM 5:07 PM
Waning Gibbous, 81% visible
METAR KIAG 161253Z 19005KT 7SM CLR M04/M06 A3035 RMK AO2 SLP294 T10391061

Get Your Daily Forecast Email!

Thanks for signing up!

Be on the lookout for a verification email in your inbox.

You'll start receiving the daily forecast at 8 AM.

×

10-Day Weather Forecast

Almanac

Astronomy

Jan. 16, 2017 Rise Set
Actual Time
Civil Twilight
Nautical Twilight
Astronomical Twilight
Moon
Length of Visible Light
Length of Day
Tomorrow will be .
, % of the Moon is Illuminated

Today's Extremes

State Highs State Lows

Community

WunderPhotos

Upload Photos

1,962,540 photos uploaded!

WunderBlog® & News

Nearby

Air Quality

  Air Quality AQ Index Pollutant
Not available.

Snow Depth

Station Depth Elevation

Earthquake Activity

City Distance Mag. Time & Date
Minimum magnitude displayed is 2.5.

Coastal Water Temperatures

Place Temperature

Stations

Nearby Weather Stations

Station Location Temp. Windchill Dew Point Humidity Wind Precip. Elev Updated Type
                   

Watches & Warnings

Freezing Rain Advisory
Issued: 6:46 AM EST Jan. 16, 2017 – National Weather Service

... Freezing Rain Advisory remains in effect from 8 PM this
evening to 10 am EST Tuesday...

* locations... western southern tier... and the Niagara Frontier.

* Timing... from this evening through late Tuesday morning.

* Accumulations... ice accumulating up to one tenth of an inch.

* Impacts... very slippery conditions on untreated roads and
sidewalks.

Precautionary/preparedness actions...

A Freezing Rain Advisory is issued when icing is expected in the
affected areas... but not enough to disrupt travel or damage
trees and power lines. Instead... patches of ice will cause slick
spots on roadways and sidewalks. Walking and driving could
therefore be difficult... but not impossible.

Stay tuned to NOAA Weather Radio or your favorite source of
weather information for the latest updates. Additional details
can also be found at www.Weather.Gov/Buffalo.

Report ice accumulation to the National Weather Service in
Buffalo by sending an email to bufstorm.Report@noaa.Gov... posting
to the NWS Buffalo facebook Page... or tweet... using the hashtag
bufwx